createdAt,value
2019-05-11T00:01:24.973Z,11.67
2019-05-11T00:03:54.011Z,11.67
2019-05-11T00:06:23.131Z,11.59
2019-05-11T00:08:52.194Z,11.65
2019-05-11T00:11:21.219Z,11.59
2019-05-11T00:13:50.343Z,11.66
2019-05-11T00:16:19.411Z,11.62
2019-05-11T00:18:48.482Z,11.58
2019-05-11T00:21:17.566Z,11.50
2019-05-11T00:23:46.611Z,11.52
2019-05-11T00:26:15.649Z,11.47
2019-05-11T00:28:44.705Z,11.53
2019-05-11T00:31:13.785Z,11.18
2019-05-11T00:33:42.795Z,11.19
2019-05-11T00:36:12.037Z,11.07
2019-05-11T00:38:41.059Z,11.12
2019-05-11T00:41:10.100Z,11.11
2019-05-11T00:43:39.206Z,11.28
2019-05-11T00:46:08.285Z,11.41
2019-05-11T00:48:37.379Z,11.35
2019-05-11T00:51:06.437Z,11.51
2019-05-11T00:53:35.533Z,11.48
2019-05-11T00:56:04.650Z,11.53
2019-05-11T00:58:33.759Z,11.55
2019-05-11T01:01:02.865Z,11.58
2019-05-11T01:03:32.199Z,11.55
2019-05-11T01:06:01.255Z,11.52
2019-05-11T01:08:30.262Z,11.50
2019-05-11T01:10:59.344Z,11.41
2019-05-11T01:13:28.438Z,11.39
2019-05-11T01:15:57.533Z,11.40
2019-05-11T01:18:26.655Z,11.54
2019-05-11T01:20:55.718Z,11.09
2019-05-11T01:23:24.855Z,11.24
2019-05-11T01:25:53.992Z,11.42
2019-05-11T01:28:23.071Z,11.46
2019-05-11T01:30:52.156Z,11.22
2019-05-11T01:33:21.207Z,11.17
2019-05-11T01:35:51.201Z,11.23
2019-05-11T01:38:20.484Z,11.22
2019-05-11T01:40:58.097Z,11.22
2019-05-11T01:43:20.440Z,11.14
2019-05-11T01:45:49.464Z,10.96
2019-05-11T01:48:18.631Z,11.00
2019-05-11T01:50:47.692Z,10.96
2019-05-11T01:53:17.021Z,11.01
2019-05-11T01:55:46.113Z,11.18
2019-05-11T01:58:15.230Z,11.30
2019-05-11T02:00:44.276Z,11.39
2019-05-11T02:03:13.362Z,11.32
2019-05-11T02:05:42.435Z,11.38
2019-05-11T02:08:11.492Z,11.47
2019-05-11T02:10:40.560Z,11.47
2019-05-11T02:13:09.619Z,11.56
2019-05-11T02:15:38.676Z,11.49
2019-05-11T02:18:07.761Z,11.52
2019-05-11T02:20:36.886Z,11.46
2019-05-11T02:23:05.989Z,11.43
2019-05-11T02:25:35.021Z,11.46
2019-05-11T02:28:04.213Z,11.61
2019-05-11T02:30:33.279Z,11.38
2019-05-11T02:33:02.381Z,11.31
2019-05-11T02:35:31.427Z,11.34
2019-05-11T02:38:00.521Z,11.47
2019-05-11T02:40:29.586Z,11.41
2019-05-11T02:42:58.609Z,11.47
2019-05-11T02:45:41.177Z,11.56
2019-05-11T02:48:11.665Z,11.53
2019-05-11T02:50:40.754Z,11.53
2019-05-11T02:53:09.995Z,11.51
2019-05-11T02:55:39.205Z,11.47
2019-05-11T02:58:08.319Z,11.43
2019-05-11T03:00:41.687Z,11.24
2019-05-11T03:03:10.741Z,11.39
2019-05-11T03:05:39.829Z,11.36
2019-05-11T03:08:10.020Z,11.36
2019-05-11T03:10:39.150Z,11.38
2019-05-11T03:13:08.256Z,11.49
2019-05-11T03:15:37.291Z,11.56
2019-05-11T03:18:06.388Z,11.26
2019-05-11T03:20:35.480Z,11.06
2019-05-11T03:23:04.487Z,11.11
2019-05-11T03:25:33.681Z,11.21
2019-05-11T03:28:02.761Z,11.11
2019-05-11T03:30:31.869Z,11.26
2019-05-11T03:33:00.938Z,11.34
2019-05-11T03:35:30.093Z,11.27
2019-05-11T03:37:59.198Z,11.25
2019-05-11T03:40:28.253Z,11.19
2019-05-11T03:42:57.242Z,11.17
2019-05-11T03:45:26.337Z,11.15
2019-05-11T03:47:55.389Z,11.24
2019-05-11T03:50:24.414Z,11.07
2019-05-11T03:52:53.431Z,11.10
2019-05-11T03:55:22.475Z,11.17
2019-05-11T03:57:51.519Z,11.09
2019-05-11T04:00:23.786Z,11.16
2019-05-11T04:02:52.884Z,11.09
2019-05-11T04:05:21.951Z,11.18
2019-05-11T04:07:51.041Z,10.93
2019-05-11T04:10:24.606Z,10.89
2019-05-11T04:12:50.881Z,10.77
2019-05-11T04:15:19.956Z,10.78
2019-05-11T04:17:49.065Z,10.80
2019-05-11T04:20:18.090Z,10.77
2019-05-11T04:22:47.143Z,10.82
2019-05-11T04:25:16.177Z,10.88
2019-05-11T04:27:45.304Z,11.04
2019-05-11T04:30:14.384Z,10.97
2019-05-11T04:32:43.468Z,10.94
2019-05-11T04:35:12.544Z,11.04
2019-05-11T04:37:41.603Z,10.99
2019-05-11T04:40:10.655Z,10.94
2019-05-11T04:42:54.084Z,10.93
2019-05-11T04:45:10.595Z,10.80
2019-05-11T04:47:39.674Z,10.79
2019-05-11T04:50:08.776Z,10.74
2019-05-11T04:52:37.881Z,10.74
2019-05-11T04:55:06.935Z,10.69
2019-05-11T04:57:36.032Z,10.69
2019-05-11T05:00:05.278Z,10.79
2019-05-11T05:02:34.338Z,10.66
2019-05-11T05:05:03.348Z,10.79
2019-05-11T05:07:32.406Z,10.79
2019-05-11T05:10:01.448Z,11.05
2019-05-11T05:12:30.658Z,11.07
2019-05-11T05:14:59.724Z,11.00
2019-05-11T05:17:28.872Z,10.86
2019-05-11T05:19:57.875Z,11.04
2019-05-11T05:22:28.108Z,10.95
2019-05-11T05:24:57.275Z,10.97
2019-05-11T05:27:26.341Z,11.07
2019-05-11T05:29:55.519Z,11.10
2019-05-11T05:32:24.661Z,11.32
2019-05-11T05:34:53.713Z,11.36
2019-05-11T05:37:22.953Z,11.29
2019-05-11T05:39:52.096Z,11.26
2019-05-11T05:42:21.191Z,11.58
2019-05-11T05:44:50.249Z,11.64
2019-05-11T05:47:19.327Z,11.80
2019-05-11T05:49:48.370Z,12.13
2019-05-11T05:52:17.466Z,12.18
2019-05-11T05:54:46.536Z,12.34
2019-05-11T05:57:15.686Z,12.46
2019-05-11T05:59:44.795Z,12.62
2019-05-11T06:02:13.822Z,12.72
2019-05-11T06:04:42.975Z,12.98
2019-05-11T06:07:12.018Z,13.16
2019-05-11T06:09:41.091Z,13.43
2019-05-11T06:12:10.093Z,13.57
2019-05-11T06:14:39.159Z,13.73
2019-05-11T06:17:08.520Z,13.51
2019-05-11T06:19:37.572Z,13.58
2019-05-11T06:22:06.617Z,13.46
2019-05-11T06:24:35.787Z,13.24
2019-05-11T06:27:04.841Z,13.15
2019-05-11T06:29:33.940Z,13.06
2019-05-11T06:32:02.991Z,13.22
2019-05-11T06:34:32.122Z,13.30
2019-05-11T06:37:01.152Z,13.28
2019-05-11T06:39:30.214Z,13.21
2019-05-11T06:41:59.400Z,13.24
2019-05-11T06:44:28.535Z,13.34
2019-05-11T06:46:57.657Z,13.20
2019-05-11T06:49:26.910Z,13.25
2019-05-11T06:51:55.984Z,13.20
2019-05-11T06:54:25.296Z,13.29
2019-05-11T06:56:54.431Z,13.18
2019-05-11T06:59:23.646Z,13.34
2019-05-11T07:01:52.684Z,13.27
2019-05-11T07:04:21.783Z,13.24
2019-05-11T07:06:50.976Z,13.36
2019-05-11T07:09:20.137Z,13.33
2019-05-11T07:11:49.329Z,13.19
2019-05-11T07:14:21.180Z,13.20
2019-05-11T07:16:49.449Z,13.05
2019-05-11T07:19:19.639Z,13.13
2019-05-11T07:21:48.727Z,13.12
2019-05-11T07:24:17.878Z,13.18
2019-05-11T07:26:47.106Z,13.36
2019-05-11T07:29:16.290Z,13.58
2019-05-11T07:31:45.396Z,14.12
2019-05-11T07:34:14.522Z,14.08
2019-05-11T07:36:43.590Z,13.87
2019-05-11T07:39:12.792Z,13.94
2019-05-11T07:41:41.939Z,13.77
2019-05-11T07:44:10.996Z,13.50
2019-05-11T07:46:40.083Z,13.33
2019-05-11T07:49:09.752Z,13.00
2019-05-11T07:51:39.127Z,13.05
2019-05-11T07:54:08.604Z,12.88
2019-05-11T07:56:39.027Z,12.90
2019-05-11T07:59:08.625Z,13.05
2019-05-11T08:01:38.664Z,12.72
2019-05-11T08:04:07.989Z,12.68
2019-05-11T08:06:39.140Z,12.55
2019-05-11T08:09:08.562Z,12.43
2019-05-11T08:11:38.832Z,12.52
2019-05-11T08:14:08.201Z,12.41
2019-05-11T08:16:39.333Z,12.32
2019-05-11T08:19:10.943Z,12.45
2019-05-11T08:21:40.184Z,12.38
2019-05-11T08:24:09.310Z,12.40
2019-05-11T08:26:39.571Z,12.24
2019-05-11T08:29:08.733Z,12.32
2019-05-11T08:31:38.587Z,12.40
2019-05-11T08:34:08.833Z,12.44
2019-05-11T08:36:38.088Z,12.26
2019-05-11T08:39:07.994Z,12.12
2019-05-11T08:41:38.413Z,12.01
2019-05-11T08:44:08.902Z,12.08
2019-05-11T08:46:38.685Z,12.09
2019-05-11T08:49:08.678Z,12.35
2019-05-11T08:51:38.624Z,12.61
2019-05-11T08:54:08.928Z,12.45
2019-05-11T08:56:38.510Z,12.76
2019-05-11T08:59:08.167Z,12.79
2019-05-11T09:01:39.358Z,12.95
2019-05-11T09:04:09.104Z,12.97
2019-05-11T09:06:38.601Z,12.98
2019-05-11T09:09:08.942Z,13.19
2019-05-11T09:11:39.007Z,13.24
2019-05-11T09:14:08.483Z,13.64
2019-05-11T09:16:38.516Z,13.70
2019-05-11T09:19:08.810Z,13.63
2019-05-11T09:21:38.501Z,13.56
2019-05-11T09:24:08.500Z,13.62
2019-05-11T09:26:39.099Z,13.31
2019-05-11T09:29:08.678Z,13.02
2019-05-11T09:31:38.315Z,12.83
2019-05-11T09:34:08.962Z,12.79
2019-05-11T09:36:39.592Z,12.29
2019-05-11T09:39:08.908Z,12.63
2019-05-11T09:41:38.450Z,12.88
2019-05-11T09:44:08.959Z,13.37
2019-05-11T09:46:38.593Z,13.27
2019-05-11T09:49:08.185Z,13.59
2019-05-11T09:51:38.046Z,13.92
2019-05-11T09:54:07.855Z,14.36
2019-05-11T09:56:38.151Z,14.44
2019-05-11T09:59:08.757Z,14.65
2019-05-11T10:01:38.109Z,15.52
2019-05-11T10:04:09.022Z,16.15
2019-05-11T10:06:40.201Z,17.08
2019-05-11T10:09:09.212Z,17.69
2019-05-11T10:11:39.909Z,16.79
2019-05-11T10:14:09.143Z,16.58
2019-05-11T10:16:39.783Z,15.57
2019-05-11T10:19:08.870Z,15.58
2019-05-11T10:21:38.584Z,15.42
2019-05-11T10:24:08.506Z,15.19
2019-05-11T10:26:38.469Z,14.84
2019-05-11T10:29:07.963Z,14.76
2019-05-11T10:31:38.574Z,14.51
2019-05-11T10:34:08.681Z,14.68
2019-05-11T10:36:39.284Z,14.34
2019-05-11T10:39:09.336Z,14.03
2019-05-11T10:41:38.849Z,14.30
2019-05-11T10:44:08.342Z,14.75
2019-05-11T10:46:38.172Z,14.60
2019-05-11T10:49:07.972Z,12.73
2019-05-11T10:51:38.388Z,12.24
2019-05-11T10:54:08.672Z,12.12
2019-05-11T10:56:39.482Z,12.04
2019-05-11T10:59:08.571Z,11.60
2019-05-11T11:01:38.186Z,11.36
2019-05-11T11:04:08.061Z,11.52
2019-05-11T11:06:38.668Z,11.38
2019-05-11T11:09:09.026Z,11.49
2019-05-11T11:11:38.359Z,11.42
2019-05-11T11:14:08.714Z,11.41
2019-05-11T11:16:42.732Z,11.23
2019-05-11T11:19:10.032Z,11.41
2019-05-11T11:21:39.085Z,11.18
2019-05-11T11:24:08.161Z,11.13
2019-05-11T11:26:38.028Z,11.07
2019-05-11T11:29:08.530Z,11.09
2019-05-11T11:31:38.110Z,11.15
2019-05-11T11:34:08.180Z,11.18
2019-05-11T11:36:38.812Z,11.25
2019-05-11T11:39:08.618Z,11.26
2019-05-11T11:41:37.960Z,11.50
2019-05-11T11:44:07.869Z,11.53
2019-05-11T11:46:50.785Z,11.41
2019-05-11T11:49:08.379Z,11.57
2019-05-11T11:51:37.947Z,11.36
2019-05-11T11:54:08.770Z,11.35
2019-05-11T11:56:38.241Z,11.31
2019-05-11T11:59:08.544Z,11.11
2019-05-11T12:01:38.624Z,11.05
2019-05-11T12:04:08.722Z,11.12
2019-05-11T12:06:38.604Z,11.06
2019-05-11T12:09:08.964Z,11.03
2019-05-11T12:11:38.289Z,11.10
2019-05-11T12:14:08.716Z,11.32
2019-05-11T12:16:38.793Z,11.08
2019-05-11T12:19:08.543Z,11.16
2019-05-11T12:21:38.007Z,11.11
2019-05-11T12:24:08.256Z,10.98
2019-05-11T12:26:38.828Z,11.08
2019-05-11T12:29:08.318Z,10.96
2019-05-11T12:31:37.964Z,10.81
2019-05-11T12:34:08.726Z,10.92
2019-05-11T12:36:38.803Z,10.81
2019-05-11T12:39:08.654Z,10.80
2019-05-11T12:41:38.698Z,10.80
2019-05-11T12:44:08.844Z,10.80
2019-05-11T12:46:39.552Z,10.91
2019-05-11T12:49:08.718Z,10.82
2019-05-11T12:51:38.398Z,10.88
2019-05-11T12:54:08.306Z,10.79
2019-05-11T12:56:38.276Z,10.71
2019-05-11T12:59:08.171Z,10.79
2019-05-11T13:01:38.184Z,10.78
2019-05-11T13:04:08.959Z,10.76
2019-05-11T13:06:38.616Z,10.70
2019-05-11T13:09:09.211Z,10.78
2019-05-11T13:11:38.356Z,10.71
2019-05-11T13:14:08.048Z,11.13
2019-05-11T13:16:37.900Z,10.96
2019-05-11T13:19:08.371Z,11.00
2019-05-11T13:21:38.342Z,11.09
2019-05-11T13:24:08.347Z,10.97
2019-05-11T13:26:38.226Z,11.45
2019-05-11T13:29:07.916Z,11.03
2019-05-11T13:31:38.431Z,11.22
2019-05-11T13:34:08.398Z,11.31
2019-05-11T13:36:38.128Z,10.76
2019-05-11T13:39:09.069Z,11.10
2019-05-11T13:41:38.473Z,11.38
2019-05-11T13:44:08.113Z,11.06
2019-05-11T13:46:38.849Z,10.57
2019-05-11T13:49:08.581Z,10.51
2019-05-11T13:51:38.830Z,10.39
2019-05-11T13:54:09.249Z,10.23
2019-05-11T13:56:38.359Z,10.17
2019-05-11T13:59:10.605Z,10.20
2019-05-11T14:01:39.462Z,10.20
2019-05-11T14:04:08.764Z,9.85
2019-05-11T14:06:38.026Z,9.94
2019-05-11T14:09:08.934Z,10.01
2019-05-11T14:11:39.088Z,9.95
2019-05-11T14:14:08.221Z,10.03
2019-05-11T14:16:37.834Z,10.05
2019-05-11T14:19:08.764Z,10.21
2019-05-11T14:21:38.640Z,10.06
2019-05-11T14:24:08.014Z,10.28
2019-05-11T14:26:38.605Z,10.38
2019-05-11T14:29:08.513Z,10.04
2019-05-11T14:31:38.637Z,10.37
2019-05-11T14:34:08.773Z,9.96
2019-05-11T14:36:38.784Z,10.10
2019-05-11T14:39:08.706Z,10.16
2019-05-11T14:41:38.291Z,10.12
2019-05-11T14:44:08.805Z,10.15
2019-05-11T14:46:38.545Z,10.18
2019-05-11T14:49:08.102Z,10.19
2019-05-11T14:51:39.140Z,10.28
2019-05-11T14:54:08.448Z,10.03
2019-05-11T14:56:38.216Z,10.16
2019-05-11T14:59:09.109Z,10.00
2019-05-11T15:01:39.530Z,10.06
2019-05-11T15:04:09.210Z,10.13
2019-05-11T15:06:38.752Z,10.09
2019-05-11T15:09:08.453Z,10.19
2019-05-11T15:11:38.804Z,10.31
2019-05-11T15:14:08.391Z,10.14
2019-05-11T15:16:38.327Z,10.15
2019-05-11T15:19:08.057Z,10.27
2019-05-11T15:21:38.698Z,10.13
2019-05-11T15:24:09.007Z,10.04
2019-05-11T15:26:38.341Z,9.95
2019-05-11T15:29:08.246Z,10.03
2019-05-11T15:31:38.600Z,9.78
2019-05-11T15:34:08.507Z,10.02
2019-05-11T15:36:38.712Z,10.00
2019-05-11T15:39:08.541Z,9.63
2019-05-11T15:41:38.825Z,9.74
2019-05-11T15:44:08.754Z,9.58
2019-05-11T15:46:39.085Z,9.84
2019-05-11T15:49:08.928Z,9.87
2019-05-11T15:51:41.209Z,9.92
2019-05-11T15:54:10.150Z,9.94
2019-05-11T15:56:39.273Z,10.08
2019-05-11T15:59:08.881Z,10.03
2019-05-11T16:01:41.052Z,10.22
2019-05-11T16:04:09.255Z,10.32
2019-05-11T16:06:38.343Z,10.41
2019-05-11T16:09:08.416Z,10.48
2019-05-11T16:11:38.781Z,10.67
2019-05-11T16:14:08.922Z,10.59
2019-05-11T16:16:39.052Z,10.40
2019-05-11T16:19:13.942Z,10.57
2019-05-11T16:21:40.693Z,10.59
2019-05-11T16:24:09.828Z,10.59
2019-05-11T16:26:39.243Z,10.50
2019-05-11T16:29:11.354Z,10.54
2019-05-11T16:31:39.234Z,10.61
2019-05-11T16:34:08.334Z,10.63
2019-05-11T16:36:38.874Z,10.73
2019-05-11T16:39:10.412Z,10.68
2019-05-11T16:41:41.078Z,10.81
2019-05-11T16:44:10.182Z,10.89
2019-05-11T16:46:39.516Z,9.83
2019-05-11T16:49:10.744Z,10.96
2019-05-11T16:51:39.371Z,11.11
2019-05-11T16:54:08.757Z,11.19
2019-05-11T16:56:38.399Z,11.28
2019-05-11T16:59:08.175Z,11.27
2019-05-11T17:01:38.001Z,11.14
2019-05-11T17:04:07.344Z,11.23
2019-05-11T17:06:38.498Z,11.35
2019-05-11T17:09:08.874Z,11.54
2019-05-11T17:11:39.928Z,11.45
2019-05-11T17:14:09.439Z,11.38
2019-05-11T17:16:38.941Z,11.46
2019-05-11T17:19:08.518Z,11.36
2019-05-11T17:21:38.342Z,11.32
2019-05-11T17:24:07.505Z,11.44
2019-05-11T17:26:38.540Z,11.58
2019-05-11T17:29:10.096Z,11.99
2019-05-11T17:31:39.334Z,11.92
2019-05-11T17:34:09.166Z,12.04
2019-05-11T17:36:38.712Z,12.09
2019-05-11T17:39:08.805Z,11.97
2019-05-11T17:41:38.882Z,12.14
2019-05-11T17:44:08.384Z,12.25
2019-05-11T17:46:38.479Z,12.17
2019-05-11T17:49:08.219Z,12.25
2019-05-11T17:51:38.070Z,12.22
2019-05-11T17:54:08.108Z,12.23
2019-05-11T17:56:38.974Z,12.30
2019-05-11T17:59:08.343Z,12.11
2019-05-11T18:01:37.504Z,12.08
2019-05-11T18:04:08.157Z,12.18
2019-05-11T18:06:38.442Z,12.08
2019-05-11T18:09:08.587Z,11.90
2019-05-11T18:11:39.613Z,11.77
2019-05-11T18:14:08.818Z,11.89
2019-05-11T18:16:37.995Z,11.61
2019-05-11T18:19:08.448Z,11.61
2019-05-11T18:21:38.689Z,11.46
2019-05-11T18:24:09.102Z,11.23
2019-05-11T18:26:39.022Z,11.26
2019-05-11T18:29:08.297Z,11.19
2019-05-11T18:31:38.352Z,11.18
2019-05-11T18:34:09.081Z,10.97
2019-05-11T18:36:39.906Z,11.16
2019-05-11T18:39:09.142Z,11.80
2019-05-11T18:41:39.806Z,11.51
2019-05-11T18:44:09.207Z,12.16
2019-05-11T18:46:39.086Z,11.57
2019-05-11T18:49:08.343Z,11.27
2019-05-11T18:51:37.980Z,11.21
2019-05-11T18:54:09.370Z,10.97
2019-05-11T18:56:38.465Z,10.89
2019-05-11T18:59:08.877Z,11.01
2019-05-11T19:01:39.757Z,11.02
2019-05-11T19:04:08.874Z,10.76
2019-05-11T19:06:38.053Z,11.14
2019-05-11T19:09:07.926Z,11.28
2019-05-11T19:11:38.382Z,10.86
2019-05-11T19:14:08.516Z,10.92
2019-05-11T19:16:38.983Z,10.64
2019-05-11T19:19:08.405Z,10.82
2019-05-11T19:21:38.689Z,11.02
2019-05-11T19:24:09.291Z,11.12
2019-05-11T19:26:38.730Z,11.30
2019-05-11T19:29:08.965Z,11.63
2019-05-11T19:31:38.868Z,11.77
2019-05-11T19:34:08.094Z,11.50
2019-05-11T19:36:38.224Z,10.83
2019-05-11T19:39:08.896Z,10.87
2019-05-11T19:41:38.206Z,10.31
2019-05-11T19:44:08.622Z,10.29
2019-05-11T19:46:38.803Z,10.32
2019-05-11T19:49:08.697Z,10.06
2019-05-11T19:51:42.267Z,10.01
2019-05-11T19:54:09.046Z,9.98
2019-05-11T19:56:38.541Z,9.86
2019-05-11T19:59:08.551Z,9.87
2019-05-11T20:01:37.850Z,9.67
2019-05-11T20:04:08.250Z,9.55
2019-05-11T20:06:38.576Z,9.62
2019-05-11T20:09:08.815Z,9.42
2019-05-11T20:11:39.219Z,9.22
2019-05-11T20:14:08.444Z,9.11
2019-05-11T20:16:37.712Z,8.98
2019-05-11T20:19:08.691Z,8.87
2019-05-11T20:21:38.276Z,8.92
2019-05-11T20:24:08.586Z,8.85
2019-05-11T20:26:38.025Z,8.82
2019-05-11T20:29:08.135Z,8.71
2019-05-11T20:31:37.403Z,8.55
2019-05-11T20:34:06.535Z,8.49
2019-05-11T20:36:35.724Z,8.53
2019-05-11T20:39:07.018Z,8.32
2019-05-11T20:41:38.334Z,8.30
2019-05-11T20:44:08.713Z,8.29
2019-05-11T20:46:38.440Z,8.27
2019-05-11T20:49:07.695Z,8.37
2019-05-11T20:51:37.963Z,8.32
2019-05-11T20:54:08.785Z,8.34
2019-05-11T20:56:38.790Z,8.24
2019-05-11T20:59:08.317Z,8.17
2019-05-11T21:01:38.854Z,8.14
2019-05-11T21:04:08.526Z,7.19
2019-05-11T21:06:37.766Z,8.17
2019-05-11T21:09:07.924Z,8.06
2019-05-11T21:11:37.070Z,7.95
2019-05-11T21:14:08.056Z,7.75
2019-05-11T21:16:38.670Z,7.65
2019-05-11T21:19:08.278Z,7.57
2019-05-11T21:21:49.424Z,7.68
2019-05-11T21:24:09.537Z,7.76
2019-05-11T21:26:38.848Z,7.74
2019-05-11T21:29:08.563Z,7.67
2019-05-11T21:31:40.826Z,7.60
2019-05-11T21:34:10.041Z,7.55
2019-05-11T21:36:39.434Z,7.33
2019-05-11T21:39:09.452Z,7.32
2019-05-11T21:41:39.646Z,7.35
2019-05-11T21:44:08.881Z,7.22
2019-05-11T21:46:38.886Z,7.07
2019-05-11T21:49:08.349Z,7.12
2019-05-11T21:51:38.125Z,7.02
2019-05-11T21:54:07.420Z,6.95
2019-05-11T21:56:38.061Z,6.96
2019-05-11T21:59:08.294Z,6.85
2019-05-11T22:01:38.484Z,6.77
2019-05-11T22:04:08.527Z,6.70
2019-05-11T22:06:39.228Z,6.64
2019-05-11T22:09:08.495Z,6.62
2019-05-11T22:11:39.016Z,6.62
2019-05-11T22:14:08.403Z,6.71
2019-05-11T22:16:38.766Z,6.71
2019-05-11T22:19:08.895Z,6.80
2019-05-11T22:21:39.782Z,5.74
2019-05-11T22:24:09.114Z,6.79
2019-05-11T22:26:38.453Z,6.77
2019-05-11T22:29:07.959Z,6.78
2019-05-11T22:31:38.577Z,6.92
2019-05-11T22:34:08.960Z,6.98
2019-05-11T22:36:38.705Z,6.76
2019-05-11T22:39:08.590Z,6.54
2019-05-11T22:41:39.631Z,6.59
2019-05-11T22:44:11.014Z,6.70
2019-05-11T22:46:40.942Z,6.63
2019-05-11T22:49:13.057Z,6.70
2019-05-11T22:51:42.401Z,6.74
2019-05-11T22:54:11.511Z,6.71
2019-05-11T22:56:42.204Z,6.80
2019-05-11T22:59:11.508Z,6.78
2019-05-11T23:01:40.711Z,6.69
2019-05-11T23:04:10.006Z,6.76
2019-05-11T23:06:40.564Z,6.67
2019-05-11T23:09:09.877Z,6.68
2019-05-11T23:11:39.049Z,6.71
2019-05-11T23:14:10.088Z,6.76
2019-05-11T23:16:39.369Z,6.76
2019-05-11T23:19:09.753Z,6.83
2019-05-11T23:21:39.061Z,6.85
2019-05-11T23:24:08.239Z,6.85
2019-05-11T23:26:38.658Z,7.02
2019-05-11T23:29:08.316Z,7.14
2019-05-11T23:31:38.291Z,7.23
2019-05-11T23:34:08.295Z,7.27
2019-05-11T23:36:38.854Z,7.35
2019-05-11T23:39:09.188Z,7.38
2019-05-11T23:41:38.570Z,7.36
2019-05-11T23:44:10.453Z,7.29
2019-05-11T23:46:39.240Z,7.24
2019-05-11T23:49:08.919Z,7.15
2019-05-11T23:51:38.751Z,7.06
2019-05-11T23:54:08.100Z,7.00
2019-05-11T23:56:38.664Z,6.96
2019-05-11T23:59:08.346Z,6.82
